Main page
METAR-TAF:

METAR-TAF

Airports :

Falconara Airport

Ancona, Italy

latitude: 43-37N, longitude: 013-22E, elevation: 12 m

Current weather observation

The report was made 22 minutes ago, at 20:50 UTC
Wind 1 kt from variable directions
Temperature 9°C
Humidity 93%
Pressure 1016 hPa
Visibility 10 km or more
Broken clouds at a height of 5500 ft

METAR: LIPY 212050Z VRB01KT 9999 BKN055 09/08 Q1016

Time: 22:12 (21:12 UTC)

Forecast

The report was made 4 hours and 12 minutes ago, at 17:00 UTC
Forecast valid from 21 at 18 UTC to 22 at 18 UTC
Wind 6 kt from variable directions
Visibility 10 km or more
Scattered clouds at a height of 4000 ft
Temporary
from 21 at 22 UTC to 22 at 06 UTC
Visibility: 4000 m
mist

TAF: LIPY 211700Z 2118/2218 VRB06KT 9999 SCT040 TEMPO 2122/2206 4000 BR

Weather observations and forecasts of more than 4000 airports (METAR and TAF reports).

The available stations are represented by yellow and red dots on the map.

Hover mouse over dot to see the name of the station.

Then click to see weather observations and forecasts.

To change the map : click on the green buttons with a black cross to zoom in, on the green button with a dash to zoom out, or on the green arrows for adjacent maps.


METAR-TAF: